createdAt,value
2016-07-26T00:00:05.565Z,0
2016-07-26T00:01:20.521Z,0
2016-07-26T00:02:20.560Z,0
2016-07-26T00:03:05.652Z,0
2016-07-26T00:04:05.694Z,0
2016-07-26T00:05:05.713Z,0
2016-07-26T00:06:06.441Z,0
2016-07-26T00:07:05.790Z,0
2016-07-26T00:08:20.729Z,0
2016-07-26T00:09:05.837Z,0
2016-07-26T00:10:05.861Z,0
2016-07-26T00:11:20.814Z,0
2016-07-26T00:12:05.911Z,0
2016-07-26T00:13:05.957Z,0
2016-07-26T00:14:05.972Z,0
2016-07-26T00:15:20.931Z,0
2016-07-26T00:16:20.959Z,0
2016-07-26T00:17:06.065Z,0
2016-07-26T00:18:21.019Z,0
2016-07-26T00:20:21.902Z,0
2016-07-26T00:21:06.172Z,0
2016-07-26T00:22:06.209Z,0
2016-07-26T00:23:06.234Z,0
2016-07-26T00:25:07.000Z,0
2016-07-26T00:26:06.326Z,0
2016-07-26T00:27:06.405Z,0
2016-07-26T00:29:06.419Z,0
2016-07-26T00:30:21.358Z,0
2016-07-26T00:31:06.475Z,0
2016-07-26T00:32:07.195Z,0
2016-07-26T00:34:21.484Z,0
2016-07-26T00:35:06.591Z,0
2016-07-26T00:37:06.644Z,0
2016-07-26T00:38:06.671Z,0
2016-07-26T00:39:06.693Z,0
2016-07-26T00:40:06.737Z,0
2016-07-26T00:41:06.806Z,0
2016-07-26T00:42:06.779Z,0
2016-07-26T00:43:06.818Z,0
2016-07-26T00:44:06.842Z,0
2016-07-26T00:45:06.882Z,0
2016-07-26T00:46:21.821Z,0
2016-07-26T00:47:06.933Z,0
2016-07-26T00:48:21.878Z,0
2016-07-26T00:49:06.993Z,0
2016-07-26T00:50:21.939Z,0
2016-07-26T00:51:07.058Z,0
2016-07-26T00:52:07.069Z,0
2016-07-26T00:53:07.095Z,0
2016-07-26T00:54:07.126Z,0
2016-07-26T00:55:07.156Z,0
2016-07-26T00:56:37.050Z,0
2016-07-26T00:57:07.223Z,0
2016-07-26T00:58:07.250Z,0
2016-07-26T00:59:22.204Z,0
2016-07-26T01:00:07.310Z,0
2016-07-26T01:01:07.332Z,0
2016-07-26T01:02:07.362Z,0
2016-07-26T01:03:07.383Z,0
2016-07-26T01:04:22.343Z,0
2016-07-26T01:05:37.299Z,0
2016-07-26T01:06:07.472Z,0
2016-07-26T01:07:07.504Z,0
2016-07-26T01:08:07.540Z,0
2016-07-26T01:09:07.561Z,0
2016-07-26T01:10:07.595Z,0
2016-07-26T01:11:07.607Z,0
2016-07-26T01:12:07.649Z,0
2016-07-26T01:13:07.679Z,0
2016-07-26T01:14:07.705Z,0
2016-07-26T01:15:07.731Z,0
2016-07-26T01:16:07.760Z,0
2016-07-26T01:17:07.784Z,0
2016-07-26T01:18:07.812Z,0
2016-07-26T01:19:07.850Z,0
2016-07-26T01:20:08.566Z,0
2016-07-26T01:21:07.904Z,0
2016-07-26T01:22:07.925Z,0
2016-07-26T01:23:07.958Z,0
2016-07-26T01:24:07.991Z,0
2016-07-26T01:25:08.021Z,0
2016-07-26T01:26:08.090Z,0
2016-07-26T01:27:08.776Z,0
2016-07-26T01:28:08.105Z,0
2016-07-26T01:29:08.178Z,0
2016-07-26T01:30:08.161Z,0
2016-07-26T01:31:23.116Z,0
2016-07-26T01:32:08.225Z,0
2016-07-26T01:33:23.168Z,0
2016-07-26T01:34:23.202Z,0
2016-07-26T01:35:23.226Z,0
2016-07-26T01:36:23.254Z,0
2016-07-26T01:37:23.282Z,0
2016-07-26T01:38:08.399Z,0
2016-07-26T01:40:08.442Z,0
2016-07-26T01:41:08.476Z,0
2016-07-26T01:42:08.510Z,0
2016-07-26T01:43:23.458Z,0
2016-07-26T01:45:08.582Z,0
2016-07-26T01:46:08.615Z,0
2016-07-26T01:47:08.644Z,0
2016-07-26T01:48:08.672Z,0
2016-07-26T01:49:08.701Z,0
2016-07-26T01:51:08.802Z,0
2016-07-26T01:52:08.799Z,0
2016-07-26T01:53:23.739Z,0
2016-07-26T01:54:08.844Z,0
2016-07-26T01:55:08.870Z,0
2016-07-26T01:56:08.894Z,0
2016-07-26T01:57:23.857Z,0
2016-07-26T01:58:08.961Z,0
2016-07-26T01:59:09.685Z,0
2016-07-26T02:00:09.006Z,0
2016-07-26T02:01:09.051Z,0
2016-07-26T02:02:09.064Z,0
2016-07-26T02:03:09.105Z,0
2016-07-26T02:04:09.126Z,0
2016-07-26T02:05:09.860Z,0
2016-07-26T02:06:09.187Z,0
2016-07-26T02:07:24.155Z,0
2016-07-26T02:08:09.257Z,0
2016-07-26T02:09:39.121Z,0
2016-07-26T02:10:09.307Z,0
2016-07-26T02:11:24.258Z,0
2016-07-26T02:12:09.362Z,0
2016-07-26T02:13:09.376Z,0
2016-07-26T02:14:09.411Z,0
2016-07-26T02:15:09.435Z,0
2016-07-26T02:17:09.492Z,0
2016-07-26T02:18:09.529Z,0
2016-07-26T02:20:09.585Z,0
2016-07-26T02:21:09.610Z,0
2016-07-26T02:22:24.569Z,0
2016-07-26T02:23:09.663Z,0
2016-07-26T02:24:09.696Z,0
2016-07-26T02:25:24.642Z,0
2016-07-26T02:26:24.671Z,0
2016-07-26T02:27:39.628Z,0
2016-07-26T02:29:09.836Z,0
2016-07-26T02:30:09.872Z,0
2016-07-26T02:31:09.945Z,0
2016-07-26T02:33:09.951Z,0
2016-07-26T02:34:11.632Z,0
2016-07-26T02:35:10.006Z,0
2016-07-26T02:36:10.735Z,0
2016-07-26T02:37:24.983Z,0
2016-07-26T02:38:25.014Z,0
2016-07-26T02:39:10.171Z,0
2016-07-26T02:41:25.097Z,0
2016-07-26T02:42:10.202Z,0
2016-07-26T02:43:10.236Z,0
2016-07-26T02:44:10.252Z,0
2016-07-26T02:45:25.215Z,0
2016-07-26T02:46:10.322Z,0
2016-07-26T02:47:10.404Z,0
2016-07-26T02:48:25.302Z,0
2016-07-26T02:49:11.219Z,0
2016-07-26T02:50:10.430Z,0
2016-07-26T02:51:10.459Z,0
2016-07-26T02:52:10.530Z,0
2016-07-26T02:53:10.514Z,0
2016-07-26T02:55:10.571Z,0
2016-07-26T02:56:10.596Z,0
2016-07-26T02:57:10.630Z,0
2016-07-26T02:58:10.655Z,0
2016-07-26T02:59:10.680Z,0
2016-07-26T03:00:10.711Z,0
2016-07-26T03:01:10.741Z,0
2016-07-26T03:02:25.693Z,0
2016-07-26T03:03:10.798Z,0
2016-07-26T03:05:10.855Z,0
2016-07-26T03:06:10.873Z,0
2016-07-26T03:07:10.924Z,0
2016-07-26T03:08:10.937Z,0
2016-07-26T03:09:10.961Z,0
2016-07-26T03:10:10.997Z,0
2016-07-26T03:11:11.027Z,0
2016-07-26T03:12:25.971Z,0
2016-07-26T03:13:25.998Z,5
2016-07-26T03:14:11.109Z,5
2016-07-26T03:15:11.133Z,5
2016-07-26T03:16:11.161Z,5
2016-07-26T03:17:11.888Z,5
2016-07-26T03:18:11.219Z,5
2016-07-26T03:19:11.243Z,5
2016-07-26T03:20:11.271Z,5
2016-07-26T03:21:11.303Z,5
2016-07-26T03:22:12.024Z,5
2016-07-26T03:23:11.360Z,5
2016-07-26T03:25:26.337Z,5
2016-07-26T03:26:11.444Z,5
2016-07-26T03:27:11.475Z,10
2016-07-26T03:28:26.428Z,10
2016-07-26T03:29:11.529Z,10
2016-07-26T03:30:11.545Z,10
2016-07-26T03:31:11.592Z,15
2016-07-26T03:32:11.614Z,15
2016-07-26T03:33:11.635Z,15
2016-07-26T03:35:11.699Z,20
2016-07-26T03:36:12.142Z,20
2016-07-26T03:37:11.755Z,20
2016-07-26T03:38:11.779Z,20
2016-07-26T03:39:11.804Z,20
2016-07-26T03:40:11.841Z,20
2016-07-26T03:41:11.858Z,20
2016-07-26T03:42:26.819Z,20
2016-07-26T03:43:11.924Z,25
2016-07-26T03:44:26.880Z,25
2016-07-26T03:45:11.981Z,25
2016-07-26T03:46:12.012Z,25
2016-07-26T03:48:12.064Z,20
2016-07-26T03:50:12.112Z,20
2016-07-26T03:51:27.072Z,20
2016-07-26T03:52:27.097Z,20
2016-07-26T03:53:12.199Z,20
2016-07-26T03:54:12.279Z,20
2016-07-26T03:55:12.267Z,20
2016-07-26T03:56:27.213Z,20
2016-07-26T03:57:12.310Z,25
2016-07-26T03:58:12.343Z,25
2016-07-26T03:59:12.382Z,25
2016-07-26T04:00:27.320Z,25
2016-07-26T04:01:12.425Z,25
2016-07-26T04:02:12.455Z,25
2016-07-26T04:03:12.483Z,25
2016-07-26T04:04:12.512Z,25
2016-07-26T04:05:12.540Z,25
2016-07-26T04:06:12.570Z,25
2016-07-26T04:07:12.595Z,25
2016-07-26T04:08:12.625Z,25
2016-07-26T04:09:12.652Z,25
2016-07-26T04:10:12.681Z,25
2016-07-26T04:11:12.711Z,30
2016-07-26T04:12:12.740Z,30
2016-07-26T04:13:27.699Z,25
2016-07-26T04:14:12.797Z,25
2016-07-26T04:15:27.742Z,25
2016-07-26T04:16:12.852Z,25
2016-07-26T04:17:27.815Z,25
2016-07-26T04:18:12.908Z,25
2016-07-26T04:19:12.937Z,25
2016-07-26T04:20:12.966Z,25
2016-07-26T04:21:12.987Z,25
2016-07-26T04:22:13.023Z,25
2016-07-26T04:23:13.043Z,25
2016-07-26T04:24:13.077Z,25
2016-07-26T04:25:13.109Z,25
2016-07-26T04:26:13.134Z,30
2016-07-26T04:27:28.079Z,30
2016-07-26T04:28:13.182Z,30
2016-07-26T04:29:13.215Z,30
2016-07-26T04:30:13.246Z,35
2016-07-26T04:31:13.273Z,35
2016-07-26T04:32:13.309Z,35
2016-07-26T04:33:13.325Z,40
2016-07-26T04:34:13.358Z,40
2016-07-26T04:35:13.385Z,45
2016-07-26T04:36:28.390Z,50
2016-07-26T04:37:13.439Z,50
2016-07-26T04:39:13.491Z,55
2016-07-26T04:40:13.523Z,60
2016-07-26T04:41:13.550Z,60
2016-07-26T04:42:13.576Z,65
2016-07-26T04:43:13.611Z,65
2016-07-26T04:44:28.566Z,70
2016-07-26T04:45:28.596Z,75
2016-07-26T04:46:13.699Z,75
2016-07-26T04:47:29.344Z,80
2016-07-26T04:48:13.752Z,85
2016-07-26T04:49:13.791Z,95
2016-07-26T04:50:13.806Z,100
2016-07-26T04:51:13.835Z,110
2016-07-26T04:52:14.558Z,120
2016-07-26T04:53:13.889Z,135
2016-07-26T04:54:13.919Z,180
2016-07-26T04:55:13.992Z,225
2016-07-26T04:56:13.973Z,190
2016-07-26T04:57:28.929Z,250
2016-07-26T04:58:14.033Z,245
2016-07-26T04:59:14.061Z,260
2016-07-26T05:00:14.099Z,275
2016-07-26T05:01:43.971Z,310
2016-07-26T05:02:29.067Z,325
2016-07-26T05:03:29.102Z,345
2016-07-26T05:04:14.215Z,350
2016-07-26T05:05:29.153Z,345
2016-07-26T05:07:14.295Z,400
2016-07-26T05:08:14.337Z,415
2016-07-26T05:09:14.344Z,430
2016-07-26T05:10:14.395Z,440
2016-07-26T05:11:14.424Z,435
2016-07-26T05:12:14.443Z,430
2016-07-26T05:13:14.494Z,425
2016-07-26T05:14:29.425Z,405
2016-07-26T05:15:14.549Z,420
2016-07-26T05:16:14.563Z,450
2016-07-26T05:17:29.520Z,470
2016-07-26T05:18:29.557Z,470
2016-07-26T05:19:31.240Z,455
2016-07-26T05:20:14.683Z,440
2016-07-26T05:21:14.721Z,420
2016-07-26T05:22:14.753Z,465
2016-07-26T05:23:14.786Z,490
2016-07-26T05:24:14.817Z,515
2016-07-26T05:25:14.836Z,530
2016-07-26T05:26:14.874Z,545
2016-07-26T05:27:29.838Z,585
2016-07-26T05:28:14.959Z,590
2016-07-26T05:29:14.975Z,635
2016-07-26T05:30:15.009Z,665
2016-07-26T05:31:15.038Z,620
2016-07-26T05:32:30.000Z,630
2016-07-26T05:33:15.155Z,640
2016-07-26T05:35:30.797Z,660
2016-07-26T05:36:30.133Z,660
2016-07-26T05:37:15.288Z,650
2016-07-26T05:38:15.279Z,655
2016-07-26T05:39:15.303Z,670
2016-07-26T05:40:30.261Z,705
2016-07-26T05:41:30.293Z,715
2016-07-26T05:42:15.394Z,695
2016-07-26T05:43:15.430Z,675
2016-07-26T05:44:15.476Z,675
2016-07-26T05:45:15.497Z,675
2016-07-26T05:46:15.538Z,680
2016-07-26T05:47:15.563Z,680
2016-07-26T05:48:15.605Z,585
2016-07-26T05:49:30.557Z,485
2016-07-26T05:50:30.597Z,630
2016-07-26T05:51:45.551Z,725
2016-07-26T05:52:15.785Z,740
2016-07-26T05:54:30.729Z,765
2016-07-26T05:55:15.839Z,770
2016-07-26T05:56:15.912Z,775
2016-07-26T05:57:15.903Z,800
2016-07-26T05:58:15.936Z,800
2016-07-26T05:59:15.966Z,835
2016-07-26T06:00:16.007Z,860
2016-07-26T06:01:16.080Z,840
2016-07-26T06:02:43.755Z,790
2016-07-26T06:03:16.125Z,790
2016-07-26T06:04:16.161Z,790
2016-07-26T06:05:16.198Z,765
2016-07-26T06:06:16.223Z,775
2016-07-26T06:07:16.254Z,745
2016-07-26T06:08:16.285Z,625
2016-07-26T06:09:16.341Z,610
2016-07-26T06:10:16.355Z,670
2016-07-26T06:11:16.381Z,735
2016-07-26T06:12:16.431Z,815
2016-07-26T06:13:16.455Z,840
2016-07-26T06:14:31.410Z,865
2016-07-26T06:15:16.527Z,870
2016-07-26T06:16:16.569Z,850
2016-07-26T06:17:16.597Z,835
2016-07-26T06:18:16.628Z,830
2016-07-26T06:19:16.676Z,780
2016-07-26T06:20:16.689Z,775
2016-07-26T06:21:16.727Z,805
2016-07-26T06:22:31.691Z,795
2016-07-26T06:23:16.787Z,795
2016-07-26T06:24:16.832Z,515
2016-07-26T06:25:16.865Z,385
2016-07-26T06:26:16.900Z,375
2016-07-26T06:27:31.858Z,360
2016-07-26T06:29:16.998Z,370
2016-07-26T06:30:17.045Z,450
2016-07-26T06:31:31.992Z,770
2016-07-26T06:32:17.100Z,885
2016-07-26T06:33:17.141Z,875
2016-07-26T06:34:32.083Z,780
2016-07-26T06:35:17.202Z,475
2016-07-26T06:36:32.158Z,655
2016-07-26T06:37:32.187Z,710
2016-07-26T06:38:32.273Z,660
2016-07-26T06:39:32.263Z,510
2016-07-26T06:40:17.360Z,455
2016-07-26T06:41:32.316Z,460
2016-07-26T06:42:17.437Z,400
2016-07-26T06:43:17.466Z,610
2016-07-26T06:44:32.429Z,590
2016-07-26T06:45:32.456Z,475
2016-07-26T06:46:17.582Z,535
2016-07-26T06:47:47.449Z,705
2016-07-26T06:48:32.554Z,710
2016-07-26T06:50:17.697Z,600
2016-07-26T06:52:32.695Z,640
2016-07-26T06:53:17.816Z,495
2016-07-26T06:54:32.809Z,470
2016-07-26T06:55:17.877Z,455
2016-07-26T06:56:17.908Z,420
2016-07-26T06:57:17.940Z,445
2016-07-26T06:58:17.976Z,455
2016-07-26T06:59:17.998Z,440
2016-07-26T07:00:18.033Z,420
2016-07-26T07:01:18.118Z,400
2016-07-26T07:02:18.105Z,385
2016-07-26T07:03:18.135Z,365
2016-07-26T07:05:18.207Z,350
2016-07-26T07:06:33.155Z,355
2016-07-26T07:07:18.278Z,360
2016-07-26T07:08:33.222Z,360
2016-07-26T07:09:18.334Z,360
2016-07-26T07:10:33.304Z,365
2016-07-26T07:11:18.394Z,360
2016-07-26T07:12:18.439Z,360
2016-07-26T07:13:18.468Z,370
2016-07-26T07:14:18.497Z,370
2016-07-26T07:15:18.556Z,375
2016-07-26T07:16:18.555Z,355
2016-07-26T07:17:33.522Z,335
2016-07-26T07:18:18.633Z,335
2016-07-26T07:20:18.691Z,350
2016-07-26T07:21:18.739Z,360
2016-07-26T07:22:19.465Z,400
2016-07-26T07:23:33.718Z,540
2016-07-26T07:24:18.827Z,530
2016-07-26T07:25:33.786Z,730
2016-07-26T07:26:18.898Z,820
2016-07-26T07:27:18.926Z,760
2016-07-26T07:28:18.967Z,795
2016-07-26T07:29:18.991Z,595
2016-07-26T07:30:19.023Z,605
2016-07-26T07:31:19.064Z,510
2016-07-26T07:32:19.090Z,525
2016-07-26T07:33:19.122Z,675
2016-07-26T07:35:34.117Z,580
2016-07-26T07:36:34.150Z,485
2016-07-26T07:37:34.188Z,455
2016-07-26T07:38:19.293Z,510
2016-07-26T07:39:19.324Z,625
2016-07-26T07:40:19.363Z,525
2016-07-26T07:41:19.389Z,580
2016-07-26T07:42:19.437Z,505
2016-07-26T07:43:19.464Z,475
2016-07-26T07:44:19.495Z,440
2016-07-26T07:45:19.527Z,420
2016-07-26T07:46:19.557Z,370
2016-07-26T07:47:19.589Z,355
2016-07-26T07:48:19.629Z,355
2016-07-26T07:49:19.660Z,415
2016-07-26T07:50:19.700Z,410
2016-07-26T07:51:19.729Z,430
2016-07-26T07:52:19.764Z,405
2016-07-26T07:53:19.797Z,480
2016-07-26T07:54:19.828Z,490
2016-07-26T07:55:19.917Z,485
2016-07-26T07:56:19.896Z,500
2016-07-26T07:57:34.858Z,475
2016-07-26T07:58:34.890Z,495
2016-07-26T07:59:19.989Z,505
2016-07-26T08:00:20.039Z,430
2016-07-26T08:01:20.114Z,465
2016-07-26T08:02:20.147Z,390
2016-07-26T08:03:20.128Z,390
2016-07-26T08:04:35.085Z,365
2016-07-26T08:05:35.168Z,375
2016-07-26T08:06:20.226Z,355
2016-07-26T08:07:35.182Z,370
2016-07-26T08:08:20.293Z,360
2016-07-26T08:10:21.053Z,365
2016-07-26T08:11:20.403Z,350
2016-07-26T08:12:20.419Z,380
2016-07-26T08:13:36.084Z,415
2016-07-26T08:14:20.496Z,420
2016-07-26T08:15:20.528Z,420
2016-07-26T08:16:35.483Z,410
2016-07-26T08:17:20.595Z,410
2016-07-26T08:18:20.626Z,395
2016-07-26T08:20:20.690Z,385
2016-07-26T08:21:20.718Z,390
2016-07-26T08:22:35.682Z,395
2016-07-26T08:23:20.781Z,410
2016-07-26T08:24:20.824Z,415
2016-07-26T08:25:35.769Z,435
2016-07-26T08:26:20.890Z,435
2016-07-26T08:27:20.918Z,435
2016-07-26T08:28:20.956Z,440
2016-07-26T08:29:35.910Z,450
2016-07-26T08:30:21.021Z,450
2016-07-26T08:31:35.967Z,440
2016-07-26T08:32:21.091Z,440
2016-07-26T08:33:21.117Z,435
2016-07-26T08:35:21.188Z,420
2016-07-26T08:36:21.227Z,420
2016-07-26T08:37:21.246Z,410
2016-07-26T08:38:36.210Z,405
2016-07-26T08:39:22.014Z,410
2016-07-26T08:40:21.354Z,395
2016-07-26T08:41:21.388Z,400
2016-07-26T08:42:21.414Z,380
2016-07-26T08:43:21.454Z,370
2016-07-26T08:45:36.437Z,370
2016-07-26T08:46:21.552Z,360
2016-07-26T08:47:21.582Z,365
2016-07-26T08:48:21.610Z,365
2016-07-26T08:50:21.682Z,360
2016-07-26T08:51:21.719Z,350
2016-07-26T08:52:21.757Z,345
2016-07-26T08:53:21.783Z,330
2016-07-26T08:54:21.811Z,330
2016-07-26T08:55:36.768Z,320
2016-07-26T08:56:21.929Z,320
2016-07-26T08:57:21.917Z,320
2016-07-26T08:58:21.957Z,305
2016-07-26T08:59:21.995Z,305
2016-07-26T09:00:36.932Z,310
2016-07-26T09:01:36.978Z,320
2016-07-26T09:02:22.130Z,325
2016-07-26T09:03:22.836Z,320
2016-07-26T09:05:22.238Z,335
2016-07-26T09:06:22.233Z,335
2016-07-26T09:07:22.247Z,345
2016-07-26T09:08:22.277Z,345
2016-07-26T09:09:37.236Z,345
2016-07-26T09:10:22.351Z,330
2016-07-26T09:13:37.362Z,310
2016-07-26T09:14:37.396Z,310
2016-07-26T09:15:22.499Z,305
2016-07-26T09:16:22.541Z,300
2016-07-26T09:17:22.582Z,295
2016-07-26T09:20:22.681Z,320
2016-07-26T09:21:22.707Z,310
2016-07-26T09:22:22.744Z,290
2016-07-26T09:23:22.783Z,280
2016-07-26T09:24:22.806Z,290
2016-07-26T09:25:22.839Z,300
2016-07-26T09:26:22.879Z,285
2016-07-26T09:27:22.902Z,275
2016-07-26T09:28:37.853Z,265
2016-07-26T09:29:22.967Z,260
2016-07-26T09:30:23.009Z,260
2016-07-26T09:31:23.036Z,255
2016-07-26T09:32:37.984Z,250
2016-07-26T09:33:23.103Z,250
2016-07-26T09:35:23.173Z,245
2016-07-26T09:36:38.123Z,245
2016-07-26T09:37:23.246Z,240
2016-07-26T09:38:23.273Z,230
2016-07-26T09:39:23.291Z,225
2016-07-26T09:40:38.247Z,220
2016-07-26T09:41:23.355Z,220
2016-07-26T09:42:23.392Z,215
2016-07-26T09:43:38.350Z,210
2016-07-26T09:44:53.301Z,205
2016-07-26T09:45:23.508Z,205
2016-07-26T09:46:23.529Z,205
2016-07-26T09:48:38.522Z,200
2016-07-26T09:50:23.649Z,195
2016-07-26T09:51:38.622Z,190
2016-07-26T09:52:38.641Z,190
2016-07-26T09:53:23.752Z,190
2016-07-26T09:55:38.744Z,185
2016-07-26T09:56:23.846Z,180
2016-07-26T09:57:23.884Z,180
2016-07-26T09:58:23.927Z,175
2016-07-26T09:59:23.948Z,175
2016-07-26T10:00:23.986Z,180
2016-07-26T10:01:24.010Z,175
2016-07-26T10:02:24.040Z,180
2016-07-26T10:04:39.032Z,185
2016-07-26T10:05:25.145Z,190
2016-07-26T10:06:24.180Z,195
2016-07-26T10:07:24.205Z,200
2016-07-26T10:08:24.238Z,210
2016-07-26T10:09:24.322Z,220
2016-07-26T10:10:24.299Z,230
2016-07-26T10:11:24.335Z,240
2016-07-26T10:12:25.057Z,250
2016-07-26T10:13:24.392Z,255
2016-07-26T10:14:24.439Z,260
2016-07-26T10:15:24.460Z,270
2016-07-26T10:16:24.496Z,270
2016-07-26T10:17:24.521Z,270
2016-07-26T10:18:24.562Z,275
2016-07-26T10:19:40.356Z,280
2016-07-26T10:20:39.548Z,280
2016-07-26T10:21:24.656Z,280
2016-07-26T10:22:24.700Z,280
2016-07-26T10:24:24.768Z,275
2016-07-26T10:25:24.836Z,270
2016-07-26T10:26:39.733Z,275
2016-07-26T10:27:24.842Z,320
2016-07-26T10:28:40.498Z,300
2016-07-26T10:29:39.837Z,340
2016-07-26T10:30:39.861Z,310
2016-07-26T10:31:24.987Z,315
2016-07-26T10:33:25.049Z,295
2016-07-26T10:35:40.031Z,280
2016-07-26T10:36:25.830Z,275
2016-07-26T10:37:25.176Z,280
2016-07-26T10:38:25.207Z,285
2016-07-26T10:39:25.249Z,300
2016-07-26T10:40:25.277Z,285
2016-07-26T10:41:40.227Z,285
2016-07-26T10:42:25.334Z,285
2016-07-26T10:43:40.298Z,285
2016-07-26T10:44:25.392Z,300
2016-07-26T10:45:25.434Z,290
2016-07-26T10:46:25.457Z,285
2016-07-26T10:47:40.426Z,280
2016-07-26T10:48:25.538Z,275
2016-07-26T10:49:28.039Z,270
2016-07-26T10:50:25.605Z,265
2016-07-26T10:51:25.625Z,260
2016-07-26T10:52:40.588Z,260
2016-07-26T10:53:25.698Z,260
2016-07-26T10:54:25.733Z,260
2016-07-26T10:55:25.754Z,265
2016-07-26T10:56:25.790Z,265
2016-07-26T10:57:25.818Z,265
2016-07-26T10:58:40.782Z,260
2016-07-26T10:59:25.886Z,260
2016-07-26T11:00:38.664Z,295
2016-07-26T11:02:25.996Z,260
2016-07-26T11:03:26.030Z,255
2016-07-26T11:05:26.092Z,250
2016-07-26T11:06:26.115Z,245
2016-07-26T11:07:41.068Z,240
2016-07-26T11:08:26.184Z,240
2016-07-26T11:09:26.213Z,235
2016-07-26T11:10:26.247Z,230
2016-07-26T11:11:26.333Z,225
2016-07-26T11:12:26.316Z,220
2016-07-26T11:13:26.350Z,220
2016-07-26T11:14:26.375Z,215
2016-07-26T11:15:26.418Z,220
2016-07-26T11:16:41.367Z,210
2016-07-26T11:17:26.474Z,205
2016-07-26T11:19:28.188Z,200
2016-07-26T11:20:27.412Z,200
2016-07-26T11:21:26.603Z,200
2016-07-26T11:22:41.552Z,205
2016-07-26T11:23:41.587Z,205
2016-07-26T11:24:26.693Z,205
2016-07-26T11:25:26.731Z,205
2016-07-26T11:26:26.761Z,210
2016-07-26T11:27:26.803Z,210
2016-07-26T11:28:26.824Z,215
2016-07-26T11:29:26.853Z,220
2016-07-26T11:30:41.816Z,230
2016-07-26T11:31:41.899Z,230
2016-07-26T11:32:41.881Z,245
2016-07-26T11:33:26.995Z,255
2016-07-26T11:34:41.953Z,250
2016-07-26T11:35:27.065Z,250
2016-07-26T11:37:27.128Z,260
2016-07-26T11:38:27.152Z,265
2016-07-26T11:39:42.102Z,275
2016-07-26T11:40:27.218Z,275
2016-07-26T11:41:27.217Z,265
2016-07-26T11:42:27.282Z,265
2016-07-26T11:43:27.322Z,265
2016-07-26T11:44:27.338Z,260
2016-07-26T11:45:27.381Z,260
2016-07-26T11:46:42.333Z,260
2016-07-26T11:47:27.447Z,260
2016-07-26T11:48:42.395Z,255
2016-07-26T11:49:29.163Z,255
2016-07-26T11:50:27.535Z,255
2016-07-26T11:51:42.492Z,250
2016-07-26T11:52:27.603Z,250
2016-07-26T11:53:27.623Z,245
2016-07-26T11:54:27.664Z,240
2016-07-26T11:55:42.621Z,235
2016-07-26T11:58:27.796Z,230
2016-07-26T11:59:27.833Z,245
2016-07-26T12:00:27.855Z,235
2016-07-26T12:01:42.822Z,235
2016-07-26T12:02:27.924Z,240
2016-07-26T12:03:27.966Z,245
2016-07-26T12:04:29.652Z,240
2016-07-26T12:05:28.019Z,240
2016-07-26T12:06:28.062Z,235
2016-07-26T12:07:28.092Z,235
2016-07-26T12:09:43.073Z,220
2016-07-26T12:10:43.116Z,215
2016-07-26T12:11:28.226Z,215
2016-07-26T12:12:28.267Z,215
2016-07-26T12:13:28.289Z,215
2016-07-26T12:14:28.315Z,205
2016-07-26T12:15:28.352Z,205
2016-07-26T12:16:28.431Z,200
2016-07-26T12:18:28.446Z,200
2016-07-26T12:19:29.328Z,200
2016-07-26T12:21:28.537Z,200
2016-07-26T12:22:28.584Z,205
2016-07-26T12:23:28.608Z,205
2016-07-26T12:24:28.636Z,205
2016-07-26T12:25:28.674Z,215
2016-07-26T12:26:28.700Z,215
2016-07-26T12:27:28.737Z,225
2016-07-26T12:28:28.770Z,235
2016-07-26T12:29:28.805Z,240
2016-07-26T12:30:28.837Z,275
2016-07-26T12:31:28.866Z,285
2016-07-26T12:32:43.826Z,290
2016-07-26T12:33:28.927Z,275
2016-07-26T12:34:30.620Z,260
2016-07-26T12:35:28.995Z,250
2016-07-26T12:36:29.027Z,245
2016-07-26T12:37:29.072Z,230
2016-07-26T12:38:44.020Z,220
2016-07-26T12:39:29.129Z,215
2016-07-26T12:40:29.165Z,215
2016-07-26T12:41:29.197Z,210
2016-07-26T12:42:44.138Z,210
2016-07-26T12:43:44.180Z,205
2016-07-26T12:44:29.286Z,205
2016-07-26T12:45:29.328Z,200
2016-07-26T12:46:44.275Z,200
2016-07-26T12:47:29.382Z,200
2016-07-26T12:48:29.414Z,200
2016-07-26T12:49:31.106Z,200
2016-07-26T12:50:29.497Z,205
2016-07-26T12:51:29.510Z,205
2016-07-26T12:52:29.559Z,205
2016-07-26T12:53:29.579Z,205
2016-07-26T12:54:29.610Z,205
2016-07-26T12:55:29.653Z,205
2016-07-26T12:56:29.682Z,205
2016-07-26T12:57:29.714Z,205
2016-07-26T12:58:44.669Z,205
2016-07-26T12:59:29.769Z,200
2016-07-26T13:00:44.734Z,200
2016-07-26T13:01:44.766Z,205
2016-07-26T13:02:29.872Z,205
2016-07-26T13:03:29.908Z,205
2016-07-26T13:04:31.579Z,210
2016-07-26T13:05:29.967Z,215
2016-07-26T13:06:44.917Z,220
2016-07-26T13:07:59.875Z,270
2016-07-26T13:08:30.060Z,270
2016-07-26T13:09:30.107Z,250
2016-07-26T13:10:30.117Z,255
2016-07-26T13:12:30.198Z,220
2016-07-26T13:13:30.276Z,225
2016-07-26T13:14:45.182Z,220
2016-07-26T13:15:30.290Z,260
2016-07-26T13:16:30.321Z,225
2016-07-26T13:17:31.062Z,225
2016-07-26T13:18:30.441Z,220
2016-07-26T13:19:30.435Z,215
2016-07-26T13:20:45.375Z,210
2016-07-26T13:21:30.529Z,215
2016-07-26T13:22:45.435Z,200
2016-07-26T13:23:30.562Z,195
2016-07-26T13:24:30.580Z,190
2016-07-26T13:25:30.609Z,195
2016-07-26T13:26:45.560Z,180
2016-07-26T13:27:30.674Z,180
2016-07-26T13:28:30.704Z,175
2016-07-26T13:29:30.739Z,175
2016-07-26T13:30:45.697Z,200
2016-07-26T13:31:30.814Z,175
2016-07-26T13:32:30.850Z,170
2016-07-26T13:33:46.501Z,160
2016-07-26T13:34:47.476Z,155
2016-07-26T13:35:30.940Z,155
2016-07-26T13:36:30.968Z,150
2016-07-26T13:37:31.004Z,155
2016-07-26T13:38:31.038Z,155
2016-07-26T13:39:45.998Z,165
2016-07-26T13:40:31.089Z,170
2016-07-26T13:41:46.058Z,180
2016-07-26T13:42:31.163Z,210
2016-07-26T13:43:31.204Z,220
2016-07-26T13:44:31.230Z,225
2016-07-26T13:45:46.183Z,220
2016-07-26T13:46:31.291Z,220
2016-07-26T13:47:31.317Z,220
2016-07-26T13:48:31.348Z,225
2016-07-26T13:49:32.220Z,225
2016-07-26T13:50:31.413Z,200
2016-07-26T13:51:46.373Z,230
2016-07-26T13:53:31.518Z,235
2016-07-26T13:54:46.473Z,245
2016-07-26T13:55:31.585Z,235
2016-07-26T13:56:31.604Z,240
2016-07-26T13:57:46.565Z,245
2016-07-26T13:58:31.679Z,245
2016-07-26T13:59:31.707Z,240
2016-07-26T14:01:31.771Z,235
2016-07-26T14:02:31.809Z,230
2016-07-26T14:03:31.841Z,235
2016-07-26T14:04:31.856Z,230
2016-07-26T14:05:31.904Z,230
2016-07-26T14:06:31.935Z,230
2016-07-26T14:07:31.969Z,225
2016-07-26T14:08:32.004Z,225
2016-07-26T14:09:32.019Z,220
2016-07-26T14:10:32.071Z,220
2016-07-26T14:11:32.097Z,220
2016-07-26T14:12:32.135Z,220
2016-07-26T14:13:32.164Z,220
2016-07-26T14:14:32.190Z,215
2016-07-26T14:15:32.273Z,215
2016-07-26T14:16:47.171Z,215
2016-07-26T14:18:02.142Z,210
2016-07-26T14:18:32.371Z,210
2016-07-26T14:19:47.287Z,205
2016-07-26T14:20:32.380Z,200
2016-07-26T14:21:32.418Z,200
2016-07-26T14:22:32.455Z,200
2016-07-26T14:23:32.483Z,200
2016-07-26T14:24:32.516Z,200
2016-07-26T14:25:32.545Z,200
2016-07-26T14:26:47.496Z,195
2016-07-26T14:27:32.605Z,195
2016-07-26T14:28:32.630Z,195
2016-07-26T14:30:32.701Z,190
2016-07-26T14:32:32.771Z,190
2016-07-26T14:33:47.720Z,190
2016-07-26T14:34:34.493Z,185
2016-07-26T14:35:32.861Z,190
2016-07-26T14:36:32.895Z,185
2016-07-26T14:37:32.932Z,180
2016-07-26T14:38:32.964Z,180
2016-07-26T14:39:47.918Z,180
2016-07-26T14:40:33.026Z,180
2016-07-26T14:41:33.053Z,140
2016-07-26T14:42:48.209Z,175
2016-07-26T14:43:48.043Z,110
2016-07-26T14:44:33.200Z,110
2016-07-26T14:45:48.106Z,120
2016-07-26T14:46:33.219Z,175
2016-07-26T14:47:33.259Z,175
2016-07-26T14:48:33.291Z,175
2016-07-26T14:49:48.246Z,175
2016-07-26T14:50:33.353Z,170
2016-07-26T14:51:33.386Z,170
2016-07-26T14:52:33.415Z,185
2016-07-26T14:53:33.453Z,165
2016-07-26T14:54:33.543Z,160
2016-07-26T14:55:33.512Z,180
2016-07-26T14:56:33.552Z,140
2016-07-26T14:57:48.506Z,125
2016-07-26T14:58:33.630Z,155
2016-07-26T14:59:33.661Z,185
2016-07-26T15:00:33.683Z,180
2016-07-26T15:01:33.698Z,185
2016-07-26T15:02:33.745Z,190